Allenstown, New Hampshire
Current Conditions -  °F | °C
As of 10:51 AM on Sunday 21 Dec 2014 (Local Time) from KCON Reporting Station
Light Snow Light Snow  
Wind Chill: -2°   Ceiling: 900
Heat Index: -2°   Visibility: 4mi
Dew Point: -3°   Wind: 3mph
Humidity: 89%   Direction: 290°WNW
Pressure: 30.34"   Gusts: NA
Location:  43.1606°N, 71.4143°W
Report Text: KCON 211551Z AUTO 29003KT 4SM -SN BR BKN009 OVC047 M02/M03 A3034 RMK AO2 SLP277 P0000 T10171033
Loading
Personal Weather Stations






























Interactive Weather Map New forecast layout! Learn more

10-Day Weather Forecast

Advertisements
Track Severe Weather on mobile